sensor_id;sensor_type;location;lat;lon;timestamp;temperature;humidity
2639;DHT22;1329;51.384;7.122;2022-11-20T00:01:34;2.80;99.90
2639;DHT22;1329;51.384;7.122;2022-11-20T00:04:02;2.80;99.90
2639;DHT22;1329;51.384;7.122;2022-11-20T00:06:29;2.80;99.90
2639;DHT22;1329;51.384;7.122;2022-11-20T00:08:58;2.90;99.90
2639;DHT22;1329;51.384;7.122;2022-11-20T00:11:28;2.90;99.90
2639;DHT22;1329;51.384;7.122;2022-11-20T00:13:58;2.90;99.90
2639;DHT22;1329;51.384;7.122;2022-11-20T00:16:28;3.00;99.90
2639;DHT22;1329;51.384;7.122;2022-11-20T00:18:56;3.00;99.90
2639;DHT22;1329;51.384;7.122;2022-11-20T00:21:24;3.00;99.90
2639;DHT22;1329;51.384;7.122;2022-11-20T00:23:54;3.00;99.90
2639;DHT22;1329;51.384;7.122;2022-11-20T00:26:25;3.00;99.90
2639;DHT22;1329;51.384;7.122;2022-11-20T00:28:53;3.00;99.90
2639;DHT22;1329;51.384;7.122;2022-11-20T00:31:21;3.00;99.90
2639;DHT22;1329;51.384;7.122;2022-11-20T00:33:49;3.10;99.90
2639;DHT22;1329;51.384;7.122;2022-11-20T00:36:18;3.10;99.90
2639;DHT22;1329;51.384;7.122;2022-11-20T00:38:46;3.00;99.90
2639;DHT22;1329;51.384;7.122;2022-11-20T00:41:16;3.10;99.90
2639;DHT22;1329;51.384;7.122;2022-11-20T00:43:43;3.10;99.90
2639;DHT22;1329;51.384;7.122;2022-11-20T00:46:12;3.10;99.90
2639;DHT22;1329;51.384;7.122;2022-11-20T00:48:42;3.10;99.90
2639;DHT22;1329;51.384;7.122;2022-11-20T00:51:10;3.10;99.90
2639;DHT22;1329;51.384;7.122;2022-11-20T00:53:38;3.10;99.90
2639;DHT22;1329;51.384;7.122;2022-11-20T00:56:06;3.20;99.90
2639;DHT22;1329;51.384;7.122;2022-11-20T00:58:39;3.20;99.90
2639;DHT22;1329;51.384;7.122;2022-11-20T01:01:09;3.20;99.90
2639;DHT22;1329;51.384;7.122;2022-11-20T01:03:40;3.20;99.90
2639;DHT22;1329;51.384;7.122;2022-11-20T01:06:12;3.30;99.90
2639;DHT22;1329;51.384;7.122;2022-11-20T01:08:41;3.30;99.90
2639;DHT22;1329;51.384;7.122;2022-11-20T01:11:10;3.30;99.90
2639;DHT22;1329;51.384;7.122;2022-11-20T01:13:41;3.40;99.90
2639;DHT22;1329;51.384;7.122;2022-11-20T01:16:11;3.40;99.90
2639;DHT22;1329;51.384;7.122;2022-11-20T01:18:41;3.40;99.90
2639;DHT22;1329;51.384;7.122;2022-11-20T01:21:12;3.40;99.90
2639;DHT22;1329;51.384;7.122;2022-11-20T01:23:41;3.50;99.90
2639;DHT22;1329;51.384;7.122;2022-11-20T01:26:12;3.50;99.90
2639;DHT22;1329;51.384;7.122;2022-11-20T01:28:42;3.50;99.90
2639;DHT22;1329;51.384;7.122;2022-11-20T01:31:13;3.50;99.90
2639;DHT22;1329;51.384;7.122;2022-11-20T01:33:42;3.50;99.90
2639;DHT22;1329;51.384;7.122;2022-11-20T01:36:10;3.50;99.90
2639;DHT22;1329;51.384;7.122;2022-11-20T01:38:38;3.60;99.90
2639;DHT22;1329;51.384;7.122;2022-11-20T01:41:06;3.60;99.90
2639;DHT22;1329;51.384;7.122;2022-11-20T01:43:34;3.60;99.90
2639;DHT22;1329;51.384;7.122;2022-11-20T01:46:12;3.60;99.90
2639;DHT22;1329;51.384;7.122;2022-11-20T01:48:46;3.60;99.90
2639;DHT22;1329;51.384;7.122;2022-11-20T01:51:21;3.60;99.90
2639;DHT22;1329;51.384;7.122;2022-11-20T01:53:58;3.70;99.90
2639;DHT22;1329;51.384;7.122;2022-11-20T01:56:28;3.70;99.90
2639;DHT22;1329;51.384;7.122;2022-11-20T01:58:58;3.70;99.90
2639;DHT22;1329;51.384;7.122;2022-11-20T02:01:28;3.70;99.90
2639;DHT22;1329;51.384;7.122;2022-11-20T02:03:56;3.70;99.90
2639;DHT22;1329;51.384;7.122;2022-11-20T02:06:25;3.70;99.90
2639;DHT22;1329;51.384;7.122;2022-11-20T02:08:53;3.70;99.90
2639;DHT22;1329;51.384;7.122;2022-11-20T02:11:21;3.80;99.90
2639;DHT22;1329;51.384;7.122;2022-11-20T02:13:48;3.80;99.90
2639;DHT22;1329;51.384;7.122;2022-11-20T02:16:19;3.80;99.90
2639;DHT22;1329;51.384;7.122;2022-11-20T02:18:50;3.80;99.90
2639;DHT22;1329;51.384;7.122;2022-11-20T02:21:24;3.80;99.90
2639;DHT22;1329;51.384;7.122;2022-11-20T02:24:04;3.90;99.90
2639;DHT22;1329;51.384;7.122;2022-11-20T02:26:37;3.90;99.90
2639;DHT22;1329;51.384;7.122;2022-11-20T02:29:10;3.90;99.90
2639;DHT22;1329;51.384;7.122;2022-11-20T02:31:38;3.90;99.90
2639;DHT22;1329;51.384;7.122;2022-11-20T02:34:09;3.90;99.90
2639;DHT22;1329;51.384;7.122;2022-11-20T02:36:38;3.90;99.90
2639;DHT22;1329;51.384;7.122;2022-11-20T02:39:07;3.90;99.90
2639;DHT22;1329;51.384;7.122;2022-11-20T02:41:37;3.90;99.90
2639;DHT22;1329;51.384;7.122;2022-11-20T02:44:05;3.90;99.90
2639;DHT22;1329;51.384;7.122;2022-11-20T02:46:33;4.00;99.90
2639;DHT22;1329;51.384;7.122;2022-11-20T02:49:01;3.90;99.90
2639;DHT22;1329;51.384;7.122;2022-11-20T02:51:29;4.00;99.90
2639;DHT22;1329;51.384;7.122;2022-11-20T02:53:57;4.00;99.90
2639;DHT22;1329;51.384;7.122;2022-11-20T02:56:25;4.00;99.90
2639;DHT22;1329;51.384;7.122;2022-11-20T02:58:52;4.00;99.90
2639;DHT22;1329;51.384;7.122;2022-11-20T03:01:19;4.00;99.90
2639;DHT22;1329;51.384;7.122;2022-11-20T03:03:46;4.00;99.90
2639;DHT22;1329;51.384;7.122;2022-11-20T03:06:16;4.00;99.90
2639;DHT22;1329;51.384;7.122;2022-11-20T03:08:43;4.00;99.90
2639;DHT22;1329;51.384;7.122;2022-11-20T03:11:10;4.10;99.90
2639;DHT22;1329;51.384;7.122;2022-11-20T03:13:39;4.10;99.90
2639;DHT22;1329;51.384;7.122;2022-11-20T03:16:11;4.10;99.90
2639;DHT22;1329;51.384;7.122;2022-11-20T03:18:39;4.10;99.90
2639;DHT22;1329;51.384;7.122;2022-11-20T03:21:06;4.10;99.90
2639;DHT22;1329;51.384;7.122;2022-11-20T03:23:34;4.10;99.90
2639;DHT22;1329;51.384;7.122;2022-11-20T03:26:12;4.10;99.90
2639;DHT22;1329;51.384;7.122;2022-11-20T03:28:42;4.10;99.90
2639;DHT22;1329;51.384;7.122;2022-11-20T03:31:14;4.10;99.90
2639;DHT22;1329;51.384;7.122;2022-11-20T03:33:42;4.20;99.90
2639;DHT22;1329;51.384;7.122;2022-11-20T03:36:12;4.20;99.90
2639;DHT22;1329;51.384;7.122;2022-11-20T03:38:40;4.20;99.90
2639;DHT22;1329;51.384;7.122;2022-11-20T03:41:09;4.20;99.90
2639;DHT22;1329;51.384;7.122;2022-11-20T03:43:37;4.20;99.90
2639;DHT22;1329;51.384;7.122;2022-11-20T03:46:07;4.20;99.90
2639;DHT22;1329;51.384;7.122;2022-11-20T03:48:34;4.20;99.90
2639;DHT22;1329;51.384;7.122;2022-11-20T03:51:11;4.20;99.90
2639;DHT22;1329;51.384;7.122;2022-11-20T03:53:39;4.20;99.90
2639;DHT22;1329;51.384;7.122;2022-11-20T03:56:08;4.20;99.90
2639;DHT22;1329;51.384;7.122;2022-11-20T03:58:37;4.30;99.90
2639;DHT22;1329;51.384;7.122;2022-11-20T04:01:08;4.20;99.90
2639;DHT22;1329;51.384;7.122;2022-11-20T04:03:38;4.30;99.90
2639;DHT22;1329;51.384;7.122;2022-11-20T04:06:08;4.20;99.90
2639;DHT22;1329;51.384;7.122;2022-11-20T04:08:36;4.30;99.90
2639;DHT22;1329;51.384;7.122;2022-11-20T04:11:11;4.30;99.90
2639;DHT22;1329;51.384;7.122;2022-11-20T04:13:39;4.30;99.90
2639;DHT22;1329;51.384;7.122;2022-11-20T04:16:09;4.30;99.90
2639;DHT22;1329;51.384;7.122;2022-11-20T04:18:36;4.30;99.90
2639;DHT22;1329;51.384;7.122;2022-11-20T04:21:04;4.30;99.90
2639;DHT22;1329;51.384;7.122;2022-11-20T04:23:32;4.30;99.90
2639;DHT22;1329;51.384;7.122;2022-11-20T04:26:01;4.30;99.90
2639;DHT22;1329;51.384;7.122;2022-11-20T04:28:29;4.30;99.90
2639;DHT22;1329;51.384;7.122;2022-11-20T04:31:02;4.30;99.90
2639;DHT22;1329;51.384;7.122;2022-11-20T04:33:32;4.30;99.90
2639;DHT22;1329;51.384;7.122;2022-11-20T04:36:03;4.40;99.90
2639;DHT22;1329;51.384;7.122;2022-11-20T04:38:32;4.40;99.90
2639;DHT22;1329;51.384;7.122;2022-11-20T04:41:01;4.40;99.90
2639;DHT22;1329;51.384;7.122;2022-11-20T04:43:30;4.40;99.90
2639;DHT22;1329;51.384;7.122;2022-11-20T04:45:59;4.40;99.90
2639;DHT22;1329;51.384;7.122;2022-11-20T04:48:28;4.40;99.90
2639;DHT22;1329;51.384;7.122;2022-11-20T04:51:11;4.40;99.90
2639;DHT22;1329;51.384;7.122;2022-11-20T04:53:39;4.40;99.90
2639;DHT22;1329;51.384;7.122;2022-11-20T04:56:08;4.50;99.90
2639;DHT22;1329;51.384;7.122;2022-11-20T04:58:37;4.40;99.90
2639;DHT22;1329;51.384;7.122;2022-11-20T05:01:06;4.50;99.90
2639;DHT22;1329;51.384;7.122;2022-11-20T05:03:35;4.40;99.90
2639;DHT22;1329;51.384;7.122;2022-11-20T05:06:03;4.50;99.90
2639;DHT22;1329;51.384;7.122;2022-11-20T05:08:33;4.50;99.90
2639;DHT22;1329;51.384;7.122;2022-11-20T05:11:01;4.50;99.90
2639;DHT22;1329;51.384;7.122;2022-11-20T05:13:29;4.50;99.90
2639;DHT22;1329;51.384;7.122;2022-11-20T05:16:01;4.40;99.90
2639;DHT22;1329;51.384;7.122;2022-11-20T05:18:28;4.40;99.90
2639;DHT22;1329;51.384;7.122;2022-11-20T05:20:56;4.40;99.90
2639;DHT22;1329;51.384;7.122;2022-11-20T05:23:23;4.40;99.90
2639;DHT22;1329;51.384;7.122;2022-11-20T05:26:06;4.50;99.90
2639;DHT22;1329;51.384;7.122;2022-11-20T05:28:35;4.50;99.90
2639;DHT22;1329;51.384;7.122;2022-11-20T05:31:19;4.50;99.90
2639;DHT22;1329;51.384;7.122;2022-11-20T05:33:46;4.50;99.90
2639;DHT22;1329;51.384;7.122;2022-11-20T05:36:14;4.50;99.90
2639;DHT22;1329;51.384;7.122;2022-11-20T05:38:43;4.50;99.90
2639;DHT22;1329;51.384;7.122;2022-11-20T05:41:13;4.50;99.90
2639;DHT22;1329;51.384;7.122;2022-11-20T05:43:43;4.60;99.90
2639;DHT22;1329;51.384;7.122;2022-11-20T05:46:12;4.50;99.90
2639;DHT22;1329;51.384;7.122;2022-11-20T05:48:43;4.60;99.90
2639;DHT22;1329;51.384;7.122;2022-11-20T05:51:13;4.60;99.90
2639;DHT22;1329;51.384;7.122;2022-11-20T05:53:42;4.60;99.90
2639;DHT22;1329;51.384;7.122;2022-11-20T05:56:13;4.60;99.90
2639;DHT22;1329;51.384;7.122;2022-11-20T05:58:40;4.60;99.90
2639;DHT22;1329;51.384;7.122;2022-11-20T06:01:10;4.60;99.90
2639;DHT22;1329;51.384;7.122;2022-11-20T06:03:39;4.60;99.90
2639;DHT22;1329;51.384;7.122;2022-11-20T06:06:09;4.60;99.90
2639;DHT22;1329;51.384;7.122;2022-11-20T06:08:36;4.60;99.90
2639;DHT22;1329;51.384;7.122;2022-11-20T06:11:04;4.60;99.90
2639;DHT22;1329;51.384;7.122;2022-11-20T06:13:33;4.60;99.90
2639;DHT22;1329;51.384;7.122;2022-11-20T06:16:00;4.60;99.90
2639;DHT22;1329;51.384;7.122;2022-11-20T06:18:28;4.60;99.90
2639;DHT22;1329;51.384;7.122;2022-11-20T06:21:04;4.60;99.90
2639;DHT22;1329;51.384;7.122;2022-11-20T06:23:33;4.60;99.90
2639;DHT22;1329;51.384;7.122;2022-11-20T06:26:05;4.60;99.90
2639;DHT22;1329;51.384;7.122;2022-11-20T06:28:35;4.60;99.90
2639;DHT22;1329;51.384;7.122;2022-11-20T06:34:09;4.60;99.90
2639;DHT22;1329;51.384;7.122;2022-11-20T06:36:36;4.60;99.90
2639;DHT22;1329;51.384;7.122;2022-11-20T06:39:06;4.50;99.90
2639;DHT22;1329;51.384;7.122;2022-11-20T06:41:33;4.60;99.90
2639;DHT22;1329;51.384;7.122;2022-11-20T06:44:03;4.50;99.90
2639;DHT22;1329;51.384;7.122;2022-11-20T06:46:31;4.50;99.90
2639;DHT22;1329;51.384;7.122;2022-11-20T06:48:58;4.50;99.90
2639;DHT22;1329;51.384;7.122;2022-11-20T06:51:25;4.50;99.90
2639;DHT22;1329;51.384;7.122;2022-11-20T06:53:53;4.50;99.90
2639;DHT22;1329;51.384;7.122;2022-11-20T06:56:22;4.50;99.90
2639;DHT22;1329;51.384;7.122;2022-11-20T06:58:49;4.50;99.90
2639;DHT22;1329;51.384;7.122;2022-11-20T07:01:18;4.50;99.90
2639;DHT22;1329;51.384;7.122;2022-11-20T07:03:44;4.50;99.90
2639;DHT22;1329;51.384;7.122;2022-11-20T07:06:14;4.50;99.90
2639;DHT22;1329;51.384;7.122;2022-11-20T07:08:41;4.50;99.90
2639;DHT22;1329;51.384;7.122;2022-11-20T07:11:12;4.50;99.90
2639;DHT22;1329;51.384;7.122;2022-11-20T07:13:41;4.50;99.90
2639;DHT22;1329;51.384;7.122;2022-11-20T07:16:09;4.50;99.90
2639;DHT22;1329;51.384;7.122;2022-11-20T07:18:37;4.50;99.90
2639;DHT22;1329;51.384;7.122;2022-11-20T07:21:08;4.50;99.90
2639;DHT22;1329;51.384;7.122;2022-11-20T07:23:37;4.50;99.90
2639;DHT22;1329;51.384;7.122;2022-11-20T07:26:05;4.50;99.90
2639;DHT22;1329;51.384;7.122;2022-11-20T07:28:33;4.50;99.90
2639;DHT22;1329;51.384;7.122;2022-11-20T07:31:01;4.50;99.90
2639;DHT22;1329;51.384;7.122;2022-11-20T07:34:02;4.50;99.90
2639;DHT22;1329;51.384;7.122;2022-11-20T07:36:29;4.50;99.90
2639;DHT22;1329;51.384;7.122;2022-11-20T07:38:56;4.40;99.90
2639;DHT22;1329;51.384;7.122;2022-11-20T07:41:26;4.50;99.90
2639;DHT22;1329;51.384;7.122;2022-11-20T07:43:54;4.50;99.90
2639;DHT22;1329;51.384;7.122;2022-11-20T07:46:21;4.50;99.90
2639;DHT22;1329;51.384;7.122;2022-11-20T07:48:48;4.50;99.90
2639;DHT22;1329;51.384;7.122;2022-11-20T07:51:17;4.60;99.90
2639;DHT22;1329;51.384;7.122;2022-11-20T07:53:44;4.60;99.90
2639;DHT22;1329;51.384;7.122;2022-11-20T07:56:11;4.60;99.90
2639;DHT22;1329;51.384;7.122;2022-11-20T07:58:39;4.60;99.90
2639;DHT22;1329;51.384;7.122;2022-11-20T08:01:07;4.70;99.90
2639;DHT22;1329;51.384;7.122;2022-11-20T08:03:35;4.70;99.90
2639;DHT22;1329;51.384;7.122;2022-11-20T08:06:04;4.70;99.90
2639;DHT22;1329;51.384;7.122;2022-11-20T08:08:33;4.70;99.90
2639;DHT22;1329;51.384;7.122;2022-11-20T08:11:00;4.70;99.90
2639;DHT22;1329;51.384;7.122;2022-11-20T08:13:41;4.70;99.90
2639;DHT22;1329;51.384;7.122;2022-11-20T08:16:26;4.70;99.90
2639;DHT22;1329;51.384;7.122;2022-11-20T08:19:26;4.70;99.90
2639;DHT22;1329;51.384;7.122;2022-11-20T08:21:54;4.70;99.90
2639;DHT22;1329;51.384;7.122;2022-11-20T08:25:25;4.70;99.90
2639;DHT22;1329;51.384;7.122;2022-11-20T08:27:29;4.60;99.90
2639;DHT22;1329;51.384;7.122;2022-11-20T08:29:58;4.60;99.90
2639;DHT22;1329;51.384;7.122;2022-11-20T08:32:25;4.50;99.90
2639;DHT22;1329;51.384;7.122;2022-11-20T08:34:55;4.50;99.90
2639;DHT22;1329;51.384;7.122;2022-11-20T08:37:22;4.50;99.90
2639;DHT22;1329;51.384;7.122;2022-11-20T08:39:50;4.50;99.90
2639;DHT22;1329;51.384;7.122;2022-11-20T08:42:19;4.50;99.90
2639;DHT22;1329;51.384;7.122;2022-11-20T08:44:46;4.50;99.90
2639;DHT22;1329;51.384;7.122;2022-11-20T08:47:13;4.50;99.90
2639;DHT22;1329;51.384;7.122;2022-11-20T08:49:40;4.60;99.90
2639;DHT22;1329;51.384;7.122;2022-11-20T08:52:07;4.60;99.90
2639;DHT22;1329;51.384;7.122;2022-11-20T08:54:34;4.70;99.90
2639;DHT22;1329;51.384;7.122;2022-11-20T08:57:02;4.80;99.90
2639;DHT22;1329;51.384;7.122;2022-11-20T08:59:29;4.90;99.90
2639;DHT22;1329;51.384;7.122;2022-11-20T09:01:58;4.90;99.90
2639;DHT22;1329;51.384;7.122;2022-11-20T09:04:25;5.00;99.90
2639;DHT22;1329;51.384;7.122;2022-11-20T09:06:53;5.10;99.90
2639;DHT22;1329;51.384;7.122;2022-11-20T09:09:20;5.20;99.90
2639;DHT22;1329;51.384;7.122;2022-11-20T09:11:48;5.30;99.90
2639;DHT22;1329;51.384;7.122;2022-11-20T09:14:17;5.30;99.90
2639;DHT22;1329;51.384;7.122;2022-11-20T09:16:44;5.40;99.90
2639;DHT22;1329;51.384;7.122;2022-11-20T09:19:12;5.40;99.90
2639;DHT22;1329;51.384;7.122;2022-11-20T09:21:41;5.50;99.90
2639;DHT22;1329;51.384;7.122;2022-11-20T09:24:09;5.60;99.90
2639;DHT22;1329;51.384;7.122;2022-11-20T09:26:36;5.70;99.90
2639;DHT22;1329;51.384;7.122;2022-11-20T09:29:03;5.70;99.90
2639;DHT22;1329;51.384;7.122;2022-11-20T09:31:32;5.80;99.90
2639;DHT22;1329;51.384;7.122;2022-11-20T09:34:00;5.80;99.90
2639;DHT22;1329;51.384;7.122;2022-11-20T09:36:27;5.90;99.90
2639;DHT22;1329;51.384;7.122;2022-11-20T09:38:54;5.90;99.90
2639;DHT22;1329;51.384;7.122;2022-11-20T09:41:55;6.00;99.90
2639;DHT22;1329;51.384;7.122;2022-11-20T09:44:38;6.00;99.90
2639;DHT22;1329;51.384;7.122;2022-11-20T09:47:19;6.10;99.90
2639;DHT22;1329;51.384;7.122;2022-11-20T09:50:02;6.10;99.90
2639;DHT22;1329;51.384;7.122;2022-11-20T09:52:42;6.10;99.90
2639;DHT22;1329;51.384;7.122;2022-11-20T09:55:15;6.20;99.90
2639;DHT22;1329;51.384;7.122;2022-11-20T09:57:45;6.20;99.90
2639;DHT22;1329;51.384;7.122;2022-11-20T10:00:14;6.30;99.90
2639;DHT22;1329;51.384;7.122;2022-11-20T10:02:48;6.30;99.90
2639;DHT22;1329;51.384;7.122;2022-11-20T10:05:19;6.30;99.90
2639;DHT22;1329;51.384;7.122;2022-11-20T10:07:52;6.40;99.90
2639;DHT22;1329;51.384;7.122;2022-11-20T10:10:29;6.40;99.90
2639;DHT22;1329;51.384;7.122;2022-11-20T10:13:15;6.40;99.90
2639;DHT22;1329;51.384;7.122;2022-11-20T10:15:59;6.50;99.90
2639;DHT22;1329;51.384;7.122;2022-11-20T10:18:42;6.50;99.90
2639;DHT22;1329;51.384;7.122;2022-11-20T10:21:23;6.50;99.90
2639;DHT22;1329;51.384;7.122;2022-11-20T10:24:13;6.60;99.90
2639;DHT22;1329;51.384;7.122;2022-11-20T10:26:58;6.50;99.90
2639;DHT22;1329;51.384;7.122;2022-11-20T10:29:34;6.50;99.90
2639;DHT22;1329;51.384;7.122;2022-11-20T10:32:03;6.50;99.90
2639;DHT22;1329;51.384;7.122;2022-11-20T10:34:43;6.50;99.90
2639;DHT22;1329;51.384;7.122;2022-11-20T10:37:18;6.40;99.90
2639;DHT22;1329;51.384;7.122;2022-11-20T10:39:51;6.50;99.90
2639;DHT22;1329;51.384;7.122;2022-11-20T10:42:28;6.40;99.90
2639;DHT22;1329;51.384;7.122;2022-11-20T10:45:02;6.40;99.90
2639;DHT22;1329;51.384;7.122;2022-11-20T10:47:36;6.50;99.90
2639;DHT22;1329;51.384;7.122;2022-11-20T10:50:09;6.50;99.90
2639;DHT22;1329;51.384;7.122;2022-11-20T10:52:42;6.50;99.90
2639;DHT22;1329;51.384;7.122;2022-11-20T10:55:28;6.50;99.90
2639;DHT22;1329;51.384;7.122;2022-11-20T10:58:04;6.60;99.90
2639;DHT22;1329;51.384;7.122;2022-11-20T11:00:36;6.60;99.90
2639;DHT22;1329;51.384;7.122;2022-11-20T11:03:20;6.70;99.90
2639;DHT22;1329;51.384;7.122;2022-11-20T11:05:53;6.80;99.90
2639;DHT22;1329;51.384;7.122;2022-11-20T11:08:21;6.80;99.90
2639;DHT22;1329;51.384;7.122;2022-11-20T11:10:52;6.80;99.90
2639;DHT22;1329;51.384;7.122;2022-11-20T11:13:21;6.90;99.90
2639;DHT22;1329;51.384;7.122;2022-11-20T11:15:49;6.90;99.90
2639;DHT22;1329;51.384;7.122;2022-11-20T11:18:24;7.00;99.90
2639;DHT22;1329;51.384;7.122;2022-11-20T11:20:55;7.00;99.90
2639;DHT22;1329;51.384;7.122;2022-11-20T11:23:31;7.00;99.90
2639;DHT22;1329;51.384;7.122;2022-11-20T11:26:00;7.10;99.90
2639;DHT22;1329;51.384;7.122;2022-11-20T11:28:29;7.10;99.90
2639;DHT22;1329;51.384;7.122;2022-11-20T11:30:56;7.10;99.90
2639;DHT22;1329;51.384;7.122;2022-11-20T11:33:25;7.10;99.90
2639;DHT22;1329;51.384;7.122;2022-11-20T11:35:56;7.20;99.90
2639;DHT22;1329;51.384;7.122;2022-11-20T11:38:30;7.20;99.90
2639;DHT22;1329;51.384;7.122;2022-11-20T11:40:59;7.20;99.90
2639;DHT22;1329;51.384;7.122;2022-11-20T11:43:29;7.30;99.90
2639;DHT22;1329;51.384;7.122;2022-11-20T11:46:26;7.30;99.90
2639;DHT22;1329;51.384;7.122;2022-11-20T11:48:57;7.30;99.90
2639;DHT22;1329;51.384;7.122;2022-11-20T11:51:31;7.40;99.90
2639;DHT22;1329;51.384;7.122;2022-11-20T11:54:02;7.40;99.90
2639;DHT22;1329;51.384;7.122;2022-11-20T11:56:36;7.40;99.90
2639;DHT22;1329;51.384;7.122;2022-11-20T11:59:08;7.40;99.90
2639;DHT22;1329;51.384;7.122;2022-11-20T12:01:44;7.50;99.90
2639;DHT22;1329;51.384;7.122;2022-11-20T12:04:19;7.40;99.90
2639;DHT22;1329;51.384;7.122;2022-11-20T12:07:00;7.40;99.90
2639;DHT22;1329;51.384;7.122;2022-11-20T12:09:37;7.50;99.90
2639;DHT22;1329;51.384;7.122;2022-11-20T12:12:10;7.50;99.90
2639;DHT22;1329;51.384;7.122;2022-11-20T12:14:42;7.40;99.90
2639;DHT22;1329;51.384;7.122;2022-11-20T12:17:11;7.40;99.90
2639;DHT22;1329;51.384;7.122;2022-11-20T12:19:40;7.40;99.90
2639;DHT22;1329;51.384;7.122;2022-11-20T12:22:19;7.40;99.90
2639;DHT22;1329;51.384;7.122;2022-11-20T12:24:55;7.40;99.90
2639;DHT22;1329;51.384;7.122;2022-11-20T12:27:43;7.40;99.90
2639;DHT22;1329;51.384;7.122;2022-11-20T12:30:15;7.30;99.90
2639;DHT22;1329;51.384;7.122;2022-11-20T12:32:57;7.30;99.90
2639;DHT22;1329;51.384;7.122;2022-11-20T12:35:44;7.30;99.90
2639;DHT22;1329;51.384;7.122;2022-11-20T12:38:39;7.30;99.90
2639;DHT22;1329;51.384;7.122;2022-11-20T12:41:15;7.30;99.90
2639;DHT22;1329;51.384;7.122;2022-11-20T12:44:21;7.30;99.90
2639;DHT22;1329;51.384;7.122;2022-11-20T12:47:19;7.30;99.90
2639;DHT22;1329;51.384;7.122;2022-11-20T12:49:55;7.30;99.90
2639;DHT22;1329;51.384;7.122;2022-11-20T12:52:37;7.30;99.90
2639;DHT22;1329;51.384;7.122;2022-11-20T12:55:23;7.30;99.90
2639;DHT22;1329;51.384;7.122;2022-11-20T12:57:58;7.30;99.90
2639;DHT22;1329;51.384;7.122;2022-11-20T13:00:27;7.30;99.90
2639;DHT22;1329;51.384;7.122;2022-11-20T13:03:25;7.30;99.90
2639;DHT22;1329;51.384;7.122;2022-11-20T13:06:15;7.30;99.90
2639;DHT22;1329;51.384;7.122;2022-11-20T13:08:47;7.30;99.90
2639;DHT22;1329;51.384;7.122;2022-11-20T13:11:23;7.30;99.90
2639;DHT22;1329;51.384;7.122;2022-11-20T13:14:11;7.20;99.90
2639;DHT22;1329;51.384;7.122;2022-11-20T13:16:48;7.30;99.90
2639;DHT22;1329;51.384;7.122;2022-11-20T13:19:17;7.30;99.90
2639;DHT22;1329;51.384;7.122;2022-11-20T13:21:46;7.30;99.90
2639;DHT22;1329;51.384;7.122;2022-11-20T13:24:23;7.30;99.90
2639;DHT22;1329;51.384;7.122;2022-11-20T13:27:04;7.30;99.90
2639;DHT22;1329;51.384;7.122;2022-11-20T13:29:45;7.30;99.90
2639;DHT22;1329;51.384;7.122;2022-11-20T13:32:15;7.30;99.90
2639;DHT22;1329;51.384;7.122;2022-11-20T13:34:52;7.30;99.90
2639;DHT22;1329;51.384;7.122;2022-11-20T13:37:28;7.30;99.90
2639;DHT22;1329;51.384;7.122;2022-11-20T13:40:13;7.30;99.90
2639;DHT22;1329;51.384;7.122;2022-11-20T13:42:56;7.20;99.90
2639;DHT22;1329;51.384;7.122;2022-11-20T13:45:29;7.30;99.90
2639;DHT22;1329;51.384;7.122;2022-11-20T13:48:01;7.30;99.90
2639;DHT22;1329;51.384;7.122;2022-11-20T13:50:46;7.30;99.90
2639;DHT22;1329;51.384;7.122;2022-11-20T13:53:36;7.30;99.90
2639;DHT22;1329;51.384;7.122;2022-11-20T13:56:21;7.30;99.90
2639;DHT22;1329;51.384;7.122;2022-11-20T13:58:59;7.30;99.90
2639;DHT22;1329;51.384;7.122;2022-11-20T14:01:30;7.30;99.90
2639;DHT22;1329;51.384;7.122;2022-11-20T14:03:58;7.30;99.90
2639;DHT22;1329;51.384;7.122;2022-11-20T14:06:27;7.40;99.90
2639;DHT22;1329;51.384;7.122;2022-11-20T14:08:58;7.30;99.90
2639;DHT22;1329;51.384;7.122;2022-11-20T14:11:26;7.40;99.90
2639;DHT22;1329;51.384;7.122;2022-11-20T14:13:57;7.40;99.90
2639;DHT22;1329;51.384;7.122;2022-11-20T14:16:27;7.30;99.90
2639;DHT22;1329;51.384;7.122;2022-11-20T14:18:57;7.30;99.90
2639;DHT22;1329;51.384;7.122;2022-11-20T14:21:26;7.30;99.90
2639;DHT22;1329;51.384;7.122;2022-11-20T14:24:03;7.30;99.90
2639;DHT22;1329;51.384;7.122;2022-11-20T14:26:31;7.30;99.90
2639;DHT22;1329;51.384;7.122;2022-11-20T14:29:00;7.20;99.90
2639;DHT22;1329;51.384;7.122;2022-11-20T14:31:27;7.20;99.90
2639;DHT22;1329;51.384;7.122;2022-11-20T14:33:55;7.20;99.90
2639;DHT22;1329;51.384;7.122;2022-11-20T14:36:24;7.20;99.90
2639;DHT22;1329;51.384;7.122;2022-11-20T14:38:52;7.20;99.90
2639;DHT22;1329;51.384;7.122;2022-11-20T14:41:21;7.20;99.90
2639;DHT22;1329;51.384;7.122;2022-11-20T14:43:52;7.20;99.90
2639;DHT22;1329;51.384;7.122;2022-11-20T14:46:23;7.20;99.90
2639;DHT22;1329;51.384;7.122;2022-11-20T14:48:53;7.20;99.90
2639;DHT22;1329;51.384;7.122;2022-11-20T14:51:30;7.20;99.90
2639;DHT22;1329;51.384;7.122;2022-11-20T14:54:11;7.10;99.90
2639;DHT22;1329;51.384;7.122;2022-11-20T14:56:39;7.10;99.90
2639;DHT22;1329;51.384;7.122;2022-11-20T14:59:07;7.00;99.90
2639;DHT22;1329;51.384;7.122;2022-11-20T15:01:36;7.10;99.90
2639;DHT22;1329;51.384;7.122;2022-11-20T15:04:06;7.00;99.90
2639;DHT22;1329;51.384;7.122;2022-11-20T15:06:35;7.00;99.90
2639;DHT22;1329;51.384;7.122;2022-11-20T15:09:03;7.00;99.90
2639;DHT22;1329;51.384;7.122;2022-11-20T15:11:32;7.00;99.90
2639;DHT22;1329;51.384;7.122;2022-11-20T15:14:03;7.00;99.90
2639;DHT22;1329;51.384;7.122;2022-11-20T15:16:31;6.90;99.90
2639;DHT22;1329;51.384;7.122;2022-11-20T15:19:00;6.90;99.90
2639;DHT22;1329;51.384;7.122;2022-11-20T15:21:28;7.00;99.90
2639;DHT22;1329;51.384;7.122;2022-11-20T15:23:57;6.90;99.90
2639;DHT22;1329;51.384;7.122;2022-11-20T15:26:26;6.90;99.90
2639;DHT22;1329;51.384;7.122;2022-11-20T15:28:55;6.90;99.90
2639;DHT22;1329;51.384;7.122;2022-11-20T15:31:23;6.90;99.90
2639;DHT22;1329;51.384;7.122;2022-11-20T15:33:50;6.90;99.90
2639;DHT22;1329;51.384;7.122;2022-11-20T15:36:18;6.90;99.90
2639;DHT22;1329;51.384;7.122;2022-11-20T15:38:45;6.90;99.90
2639;DHT22;1329;51.384;7.122;2022-11-20T15:41:12;6.90;99.90
2639;DHT22;1329;51.384;7.122;2022-11-20T15:43:39;6.90;99.90
2639;DHT22;1329;51.384;7.122;2022-11-20T15:46:09;6.90;99.90
2639;DHT22;1329;51.384;7.122;2022-11-20T15:48:40;6.90;99.90
2639;DHT22;1329;51.384;7.122;2022-11-20T15:51:20;6.90;99.90
2639;DHT22;1329;51.384;7.122;2022-11-20T15:53:49;6.90;99.90
2639;DHT22;1329;51.384;7.122;2022-11-20T15:56:15;6.90;99.90
2639;DHT22;1329;51.384;7.122;2022-11-20T15:58:42;6.90;99.90
2639;DHT22;1329;51.384;7.122;2022-11-20T16:01:11;6.90;99.90
2639;DHT22;1329;51.384;7.122;2022-11-20T16:03:38;6.90;99.90
2639;DHT22;1329;51.384;7.122;2022-11-20T16:06:05;6.90;99.90
2639;DHT22;1329;51.384;7.122;2022-11-20T16:08:33;6.90;99.90
2639;DHT22;1329;51.384;7.122;2022-11-20T16:11:01;6.90;99.90
2639;DHT22;1329;51.384;7.122;2022-11-20T16:13:28;6.90;99.90
2639;DHT22;1329;51.384;7.122;2022-11-20T16:16:20;6.90;99.90
2639;DHT22;1329;51.384;7.122;2022-11-20T16:18:48;7.00;99.90
2639;DHT22;1329;51.384;7.122;2022-11-20T16:21:15;6.90;99.90
2639;DHT22;1329;51.384;7.122;2022-11-20T16:23:44;6.90;99.90
2639;DHT22;1329;51.384;7.122;2022-11-20T16:26:12;6.90;99.90
2639;DHT22;1329;51.384;7.122;2022-11-20T16:28:40;6.90;99.90
2639;DHT22;1329;51.384;7.122;2022-11-20T16:31:11;6.90;99.90
2639;DHT22;1329;51.384;7.122;2022-11-20T16:33:39;7.00;99.90
2639;DHT22;1329;51.384;7.122;2022-11-20T16:36:10;7.00;99.90
2639;DHT22;1329;51.384;7.122;2022-11-20T16:38:38;7.00;99.90
2639;DHT22;1329;51.384;7.122;2022-11-20T16:41:07;7.00;99.90
2639;DHT22;1329;51.384;7.122;2022-11-20T16:43:44;7.00;99.90
2639;DHT22;1329;51.384;7.122;2022-11-20T16:46:12;7.00;99.90
2639;DHT22;1329;51.384;7.122;2022-11-20T16:48:39;7.00;99.90